Jackson County Reynolds Field Jackson US
ICAO: KJXN
IATA: JXN
Category: Medium
Scheduled Services: No

Elevation: 1001 ft
TransAlt. 18000 ft.

Airport Communications:
LANSING APP/DEP:127.3
ATIS:125.725
CTAF:120.7
GND/CLNC DEL:121.9
LANSING RDO:122.2
TWR:120.7
UNICOM:122.95

KJXN Zoom In..

If you have problems with the map follow the link
https://www.worldairports.se/pages/airport.php?
ICAO=KJXN

Runways:

(A) RW 06 length 5349 ft width 150 ft
---- / hdg 56

(B) RW 14 length 4000 ft width 100 ft
---- / hdg 138

(C) RW 24 length 5349 ft width 150 ft
ILS 109.10 / hdg 236

(D) RW 32 length 4000 ft width 100 ft
---- / hdg 318

Location; KJXN
Day. 21 / Time. 18.18 Zulu
* Altimeter: 30.25
* Temperature: 05° c. 41°f.
* Wind from: 240° Speed 07 kn.
Dewpoint: -01° c.
Visibility: 10 Statute Miles.
Clouds: Overcast 3100 ft.

KJXN 211818Z 24007KT 10SM OVC031 05/M01 A3025 RMK AO2 T00501011


Wind From 240°
Speed 07 kn.

 
 
jpsmedia.com for Web Design worldairports.se 2018   terms of use